createdAt,value
2023-08-22T00:01:49.991Z,100760.66
2023-08-22T00:04:17.441Z,100763.59
2023-08-22T00:06:44.854Z,100767.31
2023-08-22T00:09:13.034Z,100762.75
2023-08-22T00:11:40.473Z,100761.91
2023-08-22T00:14:07.761Z,100761.63
2023-08-22T00:16:35.153Z,100765.63
2023-08-22T00:19:02.577Z,100765.63
2023-08-22T00:21:31.662Z,100764.34
2023-08-22T00:23:59.916Z,100759.81
2023-08-22T00:26:27.544Z,100775.47
2023-08-22T00:28:54.761Z,100775.63
2023-08-22T00:31:22.350Z,100763.94
2023-08-22T00:33:50.495Z,100761.41
2023-08-22T00:36:18.124Z,100756.63
2023-08-22T00:38:46.317Z,100771.06
2023-08-22T00:41:13.706Z,100772.53
2023-08-22T00:43:41.093Z,100767.47
2023-08-22T00:46:08.668Z,100778.66
2023-08-22T00:48:36.628Z,100770.19
2023-08-22T00:51:05.467Z,100776.97
2023-08-22T00:53:34.288Z,100778.09
2023-08-22T00:56:01.921Z,100779.59
2023-08-22T00:58:29.680Z,100785.16
2023-08-22T01:00:57.286Z,100779.78
2023-08-22T01:03:25.059Z,100779.09
2023-08-22T01:05:59.658Z,100763.72
2023-08-22T01:08:33.118Z,100763.03
2023-08-22T01:11:15.739Z,100769.44
2023-08-22T01:13:45.004Z,100765.19
2023-08-22T01:16:14.629Z,100765.03
2023-08-22T01:18:43.132Z,100771.91
2023-08-22T01:21:19.324Z,100779.66
2023-08-22T01:23:46.960Z,100787.31
2023-08-22T01:26:14.854Z,100785.47
2023-08-22T01:28:56.980Z,100785.03
2023-08-22T01:31:32.641Z,100781.78
2023-08-22T01:34:07.855Z,100785.66
2023-08-22T01:36:37.933Z,100782.41
2023-08-22T01:39:09.024Z,100789.00
2023-08-22T01:44:05.160Z,100786.00
2023-08-22T01:46:32.826Z,100795.38
2023-08-22T01:49:00.455Z,100800.84
2023-08-22T01:51:27.887Z,100799.75
2023-08-22T01:53:55.261Z,100793.94
2023-08-22T01:56:23.555Z,100795.53
2023-08-22T02:01:18.976Z,100785.09
2023-08-22T02:03:47.563Z,100788.81
2023-08-22T02:06:15.137Z,100789.50
2023-08-22T02:08:42.585Z,100784.84
2023-08-22T02:11:09.958Z,100782.16
2023-08-22T02:13:37.333Z,100783.00
2023-08-22T02:16:04.822Z,100779.47
2023-08-22T02:18:32.369Z,100779.47
2023-08-22T02:21:03.823Z,100771.22
2023-08-22T02:23:32.860Z,100771.00
2023-08-22T02:26:00.170Z,100769.56
2023-08-22T02:28:27.361Z,100772.69
2023-08-22T02:30:57.982Z,100774.69
2023-08-22T02:33:25.573Z,100785.81
2023-08-22T02:35:53.141Z,100778.75
2023-08-22T02:38:20.705Z,100783.97
2023-08-22T02:40:49.872Z,100791.66
2023-08-22T02:43:17.857Z,100792.22
2023-08-22T02:45:46.450Z,100790.97
2023-08-22T02:48:14.156Z,100795.34
2023-08-22T02:50:41.660Z,100797.75
2023-08-22T02:53:11.054Z,100791.22
2023-08-22T02:55:39.599Z,100785.28
2023-08-22T02:58:07.221Z,100779.22
2023-08-22T03:00:36.784Z,100775.69
2023-08-22T03:03:04.791Z,100781.50
2023-08-22T03:05:33.289Z,100785.25
2023-08-22T03:08:00.714Z,100790.78
2023-08-22T03:10:28.166Z,100788.38
2023-08-22T03:12:56.437Z,100785.78
2023-08-22T03:15:24.216Z,100780.47
2023-08-22T03:17:51.706Z,100791.25
2023-08-22T03:20:19.217Z,100788.84
2023-08-22T03:22:46.739Z,100783.03
2023-08-22T03:25:15.007Z,100787.56
2023-08-22T03:27:42.931Z,100782.88
2023-08-22T03:30:10.880Z,100786.97
2023-08-22T03:32:38.564Z,100782.84
2023-08-22T03:35:07.904Z,100782.84
2023-08-22T03:37:38.497Z,100780.72
2023-08-22T03:40:06.655Z,100784.69
2023-08-22T03:42:34.462Z,100787.25
2023-08-22T03:45:07.866Z,100802.78
2023-08-22T03:47:35.245Z,100805.63
2023-08-22T03:50:03.389Z,100795.84
2023-08-22T03:52:32.077Z,100797.34
2023-08-22T03:54:59.491Z,100795.50
2023-08-22T03:57:26.922Z,100793.56
2023-08-22T03:59:55.673Z,100797.53
2023-08-22T04:02:23.101Z,100799.84
2023-08-22T04:04:50.447Z,100789.78
2023-08-22T04:07:17.805Z,100788.78
2023-08-22T04:09:45.275Z,100787.78
2023-08-22T04:12:12.545Z,100787.50
2023-08-22T04:14:40.581Z,100783.91
2023-08-22T04:17:07.973Z,100786.88
2023-08-22T04:19:35.306Z,100786.88
2023-08-22T04:22:02.746Z,100788.13
2023-08-22T04:24:30.322Z,100791.13
2023-08-22T04:26:58.281Z,100779.38
2023-08-22T04:29:25.918Z,100787.38
2023-08-22T04:31:53.302Z,100787.28
2023-08-22T04:34:21.019Z,100780.22
2023-08-22T04:36:55.288Z,100787.53
2023-08-22T04:39:22.730Z,100775.41
2023-08-22T04:41:54.678Z,100781.63
2023-08-22T04:44:28.314Z,100780.78
2023-08-22T04:46:55.736Z,100790.06
2023-08-22T04:49:23.118Z,100788.25
2023-08-22T04:51:50.645Z,100784.03
2023-08-22T04:54:17.994Z,100781.03
2023-08-22T04:56:45.348Z,100778.44
2023-08-22T04:59:12.630Z,100782.81
2023-08-22T05:01:40.407Z,100784.09
2023-08-22T05:04:08.775Z,100786.03
2023-08-22T05:06:36.329Z,100789.41
2023-08-22T05:09:08.021Z,100791.19
2023-08-22T05:11:36.004Z,100791.19
2023-08-22T05:14:04.814Z,100787.50
2023-08-22T05:16:32.295Z,100789.59
2023-08-22T05:19:00.008Z,100787.56
2023-08-22T05:21:27.450Z,100784.03
2023-08-22T05:23:54.816Z,100779.19
2023-08-22T05:26:22.309Z,100776.13
2023-08-22T05:28:49.738Z,100774.19
2023-08-22T05:31:24.811Z,100770.31
2023-08-22T05:33:53.236Z,100770.38
2023-08-22T05:36:20.638Z,100773.44
2023-08-22T05:38:47.975Z,100763.69
2023-08-22T05:41:15.815Z,100773.44
2023-08-22T05:43:43.636Z,100774.00
2023-08-22T05:46:11.103Z,100773.31
2023-08-22T05:48:39.359Z,100762.97
2023-08-22T05:51:07.428Z,100757.84
2023-08-22T05:53:34.898Z,100758.06
2023-08-22T05:56:02.285Z,100758.22
2023-08-22T05:58:31.052Z,100757.28
2023-08-22T06:00:59.308Z,100750.88
2023-08-22T06:03:29.714Z,100751.25
2023-08-22T06:05:57.514Z,100755.66
2023-08-22T06:08:24.965Z,100745.91
2023-08-22T06:10:52.377Z,100755.19
2023-08-22T06:13:20.076Z,100749.31
2023-08-22T06:15:49.555Z,100740.91
2023-08-22T06:18:18.897Z,100744.00
2023-08-22T06:20:47.457Z,100738.78
2023-08-22T06:23:15.120Z,100736.03
2023-08-22T06:25:42.559Z,100736.91
2023-08-22T06:28:09.952Z,100739.47
2023-08-22T06:30:37.367Z,100732.19
2023-08-22T06:33:06.162Z,100729.16
2023-08-22T06:35:33.716Z,100722.06
2023-08-22T06:38:00.978Z,100710.91
2023-08-22T06:40:28.280Z,100714.63
2023-08-22T06:42:55.631Z,100714.63
2023-08-22T06:45:31.470Z,100729.50
2023-08-22T06:47:59.076Z,100730.34
2023-08-22T06:50:26.367Z,100724.94
2023-08-22T06:52:53.857Z,100732.72
2023-08-22T06:55:21.434Z,100729.16
2023-08-22T06:57:48.988Z,100723.59
2023-08-22T07:00:18.166Z,100724.59
2023-08-22T07:02:47.647Z,100732.19
2023-08-22T07:05:16.208Z,100728.13
2023-08-22T07:07:44.166Z,100726.44
2023-08-22T07:10:14.988Z,100723.31
2023-08-22T07:12:45.054Z,100717.97
2023-08-22T07:15:12.815Z,100709.22
2023-08-22T07:17:43.691Z,100704.09
2023-08-22T07:20:12.905Z,100705.97
2023-08-22T07:22:40.810Z,100696.63
2023-08-22T07:25:08.669Z,100705.16
2023-08-22T07:27:36.106Z,100701.56
2023-08-22T07:30:04.941Z,100693.50
2023-08-22T07:32:34.175Z,100689.88
2023-08-22T07:35:01.761Z,100686.81
2023-08-22T07:37:29.370Z,100689.69
2023-08-22T07:39:57.538Z,100683.56
2023-08-22T07:42:25.011Z,100680.53
2023-08-22T07:44:52.379Z,100670.16
2023-08-22T07:47:19.718Z,100673.09
2023-08-22T07:49:47.053Z,100668.19
2023-08-22T07:52:14.415Z,100674.59
2023-08-22T07:54:41.857Z,100672.69
2023-08-22T07:57:18.441Z,100671.31
2023-08-22T07:59:46.964Z,100664.84
2023-08-22T08:02:14.452Z,100664.13
2023-08-22T08:04:42.181Z,100664.25
2023-08-22T08:07:09.657Z,100655.50
2023-08-22T08:09:37.157Z,100652.69
2023-08-22T08:12:07.944Z,100656.53
2023-08-22T08:14:35.476Z,100654.09
2023-08-22T08:17:02.873Z,100644.72
2023-08-22T08:19:30.540Z,100650.22
2023-08-22T08:21:57.971Z,100650.16
2023-08-22T08:24:25.445Z,100653.44
2023-08-22T08:26:52.710Z,100649.03
2023-08-22T08:29:20.089Z,100640.00
2023-08-22T08:31:48.789Z,100639.72
2023-08-22T08:34:16.317Z,100642.34
2023-08-22T08:36:43.724Z,100627.34
2023-08-22T08:39:11.316Z,100632.44
2023-08-22T08:41:44.312Z,100634.97
2023-08-22T08:44:14.976Z,100646.72
2023-08-22T08:46:44.307Z,100634.59
2023-08-22T08:49:11.966Z,100629.81
2023-08-22T08:51:39.935Z,100623.41
2023-08-22T08:54:07.815Z,100626.78
2023-08-22T08:56:35.330Z,100607.13
2023-08-22T08:59:02.682Z,100624.34
2023-08-22T09:01:31.413Z,100621.88
2023-08-22T09:03:58.810Z,100614.16
2023-08-22T09:06:26.514Z,100613.38
2023-08-22T09:09:11.659Z,100609.81
2023-08-22T09:11:47.924Z,100610.25
2023-08-22T09:14:22.508Z,100605.25
2023-08-22T09:16:51.145Z,100602.31
2023-08-22T09:19:18.829Z,100596.03
2023-08-22T09:22:05.369Z,100599.19
2023-08-22T09:24:36.469Z,100600.47
2023-08-22T09:27:06.658Z,100599.34
2023-08-22T09:29:35.869Z,100602.28
2023-08-22T09:32:03.708Z,100586.56
2023-08-22T09:34:32.199Z,100586.78
2023-08-22T09:36:59.735Z,100576.78
2023-08-22T09:39:27.657Z,100580.31
2023-08-22T09:41:59.742Z,100578.41
2023-08-22T09:44:28.618Z,100564.63
2023-08-22T09:46:57.591Z,100585.78
2023-08-22T09:49:25.294Z,100562.94
2023-08-22T09:51:57.005Z,100570.72
2023-08-22T09:54:24.805Z,100570.03
2023-08-22T09:56:52.699Z,100566.91
2023-08-22T09:59:21.064Z,100564.78
2023-08-22T10:01:49.916Z,100587.16
2023-08-22T10:04:19.694Z,100582.97
2023-08-22T10:06:50.884Z,100571.50
2023-08-22T10:09:19.297Z,100573.19
2023-08-22T10:11:51.095Z,100564.78
2023-08-22T10:14:24.658Z,100571.53
2023-08-22T10:16:52.500Z,100556.00
2023-08-22T10:19:21.839Z,100551.81
2023-08-22T10:21:49.720Z,100559.34
2023-08-22T10:24:21.379Z,100550.31
2023-08-22T10:27:03.566Z,100550.31
2023-08-22T10:29:35.004Z,100554.25
2023-08-22T10:32:02.432Z,100551.97
2023-08-22T10:34:35.983Z,100556.38
2023-08-22T10:37:06.472Z,100555.56
2023-08-22T10:39:42.456Z,100545.25
2023-08-22T10:42:24.151Z,100589.91
2023-08-22T10:44:57.230Z,100568.78
2023-08-22T10:47:29.722Z,100571.28
2023-08-22T10:50:13.752Z,100559.56
2023-08-22T10:52:45.295Z,100574.47
2023-08-22T10:55:14.852Z,100565.88
2023-08-22T10:57:47.295Z,100568.59
2023-08-22T11:00:21.024Z,100548.69
2023-08-22T11:02:57.515Z,100562.09
2023-08-22T11:05:25.618Z,100558.31
2023-08-22T11:07:53.428Z,100562.09
2023-08-22T11:10:24.275Z,100558.91
2023-08-22T11:12:55.481Z,100568.78
2023-08-22T11:15:23.302Z,100560.75
2023-08-22T11:17:52.246Z,100575.22
2023-08-22T11:20:24.747Z,100577.16
2023-08-22T11:22:54.514Z,100560.78
2023-08-22T11:25:29.779Z,100579.22
2023-08-22T11:27:57.091Z,100587.03
2023-08-22T11:30:24.589Z,100586.00
2023-08-22T11:32:52.161Z,100560.41
2023-08-22T11:35:19.580Z,100570.44
2023-08-22T11:37:47.418Z,100580.53
2023-08-22T11:40:16.387Z,100586.59
2023-08-22T11:42:48.206Z,100584.31
2023-08-22T11:45:22.109Z,100588.50
2023-08-22T11:47:51.681Z,100575.94
2023-08-22T11:50:26.252Z,100594.34
2023-08-22T11:53:14.830Z,100589.56
2023-08-22T11:55:50.469Z,100576.75
2023-08-22T11:58:18.217Z,100569.19
2023-08-22T12:00:45.897Z,100555.16
2023-08-22T12:03:16.283Z,100571.91
2023-08-22T12:05:50.120Z,100583.88
2023-08-22T12:08:20.172Z,100575.06
2023-08-22T12:10:50.127Z,100582.19
2023-08-22T12:13:22.216Z,100597.03
2023-08-22T12:15:50.561Z,100585.31
2023-08-22T12:18:18.986Z,100583.84
2023-08-22T12:20:49.876Z,100584.25
2023-08-22T12:23:17.611Z,100581.31
2023-08-22T12:25:45.109Z,100573.59
2023-08-22T12:28:13.075Z,100575.03
2023-08-22T12:30:40.807Z,100575.47
2023-08-22T12:33:09.829Z,100577.53
2023-08-22T12:35:39.761Z,100578.72
2023-08-22T12:38:08.958Z,100578.38
2023-08-22T12:40:36.703Z,100585.50
2023-08-22T12:43:04.653Z,100604.72
2023-08-22T12:45:32.478Z,100588.63
2023-08-22T12:48:00.066Z,100578.16
2023-08-22T12:50:27.461Z,100598.47
2023-08-22T12:52:54.755Z,100596.59
2023-08-22T12:55:23.175Z,100599.25
2023-08-22T12:57:50.694Z,100613.47
2023-08-22T13:00:18.504Z,100624.34
2023-08-22T13:02:46.704Z,100619.69
2023-08-22T13:05:15.409Z,100623.44
2023-08-22T13:07:44.677Z,100610.03
2023-08-22T13:10:13.285Z,100610.44
2023-08-22T13:12:41.657Z,100614.50
2023-08-22T13:15:09.544Z,100619.69
2023-08-22T13:17:37.113Z,100611.56
2023-08-22T13:20:06.275Z,100605.88
2023-08-22T13:22:34.076Z,100635.56
2023-08-22T13:25:01.478Z,100622.53
2023-08-22T13:27:28.783Z,100623.56
2023-08-22T13:29:56.433Z,100618.31
2023-08-22T13:32:23.877Z,100620.84
2023-08-22T13:34:51.543Z,100631.28
2023-08-22T13:37:19.732Z,100633.84
2023-08-22T13:39:47.455Z,100628.84
2023-08-22T13:42:14.923Z,100643.91
2023-08-22T13:44:42.641Z,100632.97
2023-08-22T13:47:09.983Z,100615.00
2023-08-22T13:49:37.370Z,100627.50
2023-08-22T13:52:04.985Z,100640.94
2023-08-22T13:54:32.417Z,100638.19
2023-08-22T13:56:59.867Z,100633.94
2023-08-22T13:59:28.908Z,100621.25
2023-08-22T14:01:57.863Z,100632.13
2023-08-22T14:04:25.368Z,100628.94
2023-08-22T14:06:53.402Z,100627.59
2023-08-22T14:11:51.253Z,100630.41
2023-08-22T14:14:18.446Z,100620.03
2023-08-22T14:16:45.688Z,100627.09
2023-08-22T14:19:14.283Z,100624.81
2023-08-22T14:21:47.722Z,100620.25
2023-08-22T14:24:16.923Z,100615.50
2023-08-22T14:26:45.337Z,100619.22
2023-08-22T14:29:13.125Z,100626.34
2023-08-22T14:31:40.766Z,100621.25
2023-08-22T14:34:09.792Z,100610.13
2023-08-22T14:36:37.280Z,100604.03
2023-08-22T14:39:04.762Z,100620.72
2023-08-22T14:41:32.306Z,100617.75
2023-08-22T14:43:59.887Z,100609.00
2023-08-22T14:46:27.526Z,100616.25
2023-08-22T14:48:55.504Z,100614.38
2023-08-22T14:51:23.007Z,100617.97
2023-08-22T14:53:50.592Z,100612.75
2023-08-22T14:56:17.967Z,100621.38
2023-08-22T14:58:47.980Z,100623.06
2023-08-22T15:01:18.570Z,100609.50
2023-08-22T15:03:46.685Z,100612.00
2023-08-22T15:06:14.130Z,100608.25
2023-08-22T15:08:42.107Z,100626.88
2023-08-22T15:11:09.617Z,100621.47
2023-08-22T15:13:37.642Z,100624.78
2023-08-22T15:16:05.142Z,100620.19
2023-08-22T15:18:32.979Z,100630.31
2023-08-22T15:21:01.358Z,100631.78
2023-08-22T15:23:28.823Z,100636.06
2023-08-22T15:25:57.075Z,100642.34
2023-08-22T15:28:25.190Z,100645.28
2023-08-22T15:30:59.005Z,100644.03
2023-08-22T15:33:30.248Z,100642.56
2023-08-22T15:36:01.338Z,100635.38
2023-08-22T15:38:33.758Z,100652.22
2023-08-22T15:41:03.057Z,100649.53
2023-08-22T15:43:33.642Z,100637.81
2023-08-22T15:46:01.500Z,100647.16
2023-08-22T15:48:29.155Z,100650.19
2023-08-22T15:50:58.992Z,100647.94
2023-08-22T15:53:27.134Z,100650.47
2023-08-22T15:55:54.628Z,100654.19
2023-08-22T15:58:22.018Z,100651.03
2023-08-22T16:00:49.373Z,100655.50
2023-08-22T16:03:16.855Z,100650.00
2023-08-22T16:05:44.434Z,100649.53
2023-08-22T16:08:11.858Z,100659.91
2023-08-22T16:10:39.440Z,100657.47
2023-08-22T16:13:06.782Z,100654.13
2023-08-22T16:15:34.192Z,100656.22
2023-08-22T16:18:01.631Z,100655.69
2023-08-22T16:20:31.764Z,100657.75
2023-08-22T16:22:59.216Z,100660.16
2023-08-22T16:25:26.591Z,100660.41
2023-08-22T16:27:54.332Z,100665.38
2023-08-22T16:30:21.972Z,100672.84
2023-08-22T16:32:49.393Z,100660.19
2023-08-22T16:35:17.946Z,100666.53
2023-08-22T16:37:45.623Z,100666.91
2023-08-22T16:40:13.335Z,100671.69
2023-08-22T16:42:40.972Z,100664.28
2023-08-22T16:45:08.744Z,100666.66
2023-08-22T16:47:36.248Z,100676.16
2023-08-22T16:50:06.086Z,100683.03
2023-08-22T16:52:35.783Z,100690.28
2023-08-22T16:55:05.019Z,100691.50
2023-08-22T16:57:32.814Z,100692.59
2023-08-22T17:00:00.269Z,100691.25
2023-08-22T17:02:27.579Z,100695.34
2023-08-22T17:04:54.883Z,100695.69
2023-08-22T17:07:22.412Z,100710.44
2023-08-22T17:09:49.817Z,100702.19
2023-08-22T17:12:18.481Z,100712.69
2023-08-22T17:14:45.954Z,100718.63
2023-08-22T17:17:13.288Z,100722.19
2023-08-22T17:19:40.685Z,100728.31
2023-08-22T17:22:08.142Z,100715.47
2023-08-22T17:24:35.535Z,100716.31
2023-08-22T17:27:03.085Z,100730.00
2023-08-22T17:29:30.648Z,100724.47
2023-08-22T17:31:58.111Z,100729.03
2023-08-22T17:34:25.400Z,100732.41
2023-08-22T17:36:52.795Z,100728.38
2023-08-22T17:39:20.067Z,100735.13
2023-08-22T17:41:47.770Z,100731.63
2023-08-22T17:44:15.613Z,100726.72
2023-08-22T17:46:43.181Z,100736.53
2023-08-22T17:49:10.615Z,100736.22
2023-08-22T17:51:38.119Z,100736.06
2023-08-22T17:54:07.909Z,100740.28
2023-08-22T17:56:35.407Z,100741.50
2023-08-22T17:59:03.126Z,100733.22
2023-08-22T18:01:30.959Z,100745.69
2023-08-22T18:03:58.483Z,100738.63
2023-08-22T18:06:25.726Z,100738.75
2023-08-22T18:08:53.252Z,100754.81
2023-08-22T18:11:22.992Z,100752.94
2023-08-22T18:13:50.430Z,100758.34
2023-08-22T18:16:17.915Z,100747.72
2023-08-22T18:18:45.994Z,100762.59
2023-08-22T18:21:14.101Z,100771.72
2023-08-22T18:23:42.302Z,100770.19
2023-08-22T18:26:11.283Z,100774.25
2023-08-22T18:28:39.768Z,100770.19
2023-08-22T18:31:10.620Z,100780.16
2023-08-22T18:33:38.857Z,100780.47
2023-08-22T18:36:19.653Z,100786.03
2023-08-22T18:38:48.030Z,100782.00
2023-08-22T18:41:16.038Z,100792.94
2023-08-22T18:43:45.481Z,100786.38
2023-08-22T18:46:14.734Z,100788.75
2023-08-22T18:48:42.987Z,100792.78
2023-08-22T18:51:11.037Z,100786.53
2023-08-22T18:53:38.522Z,100791.25
2023-08-22T18:56:08.569Z,100785.19
2023-08-22T18:58:38.640Z,100795.28
2023-08-22T19:01:07.035Z,100795.63
2023-08-22T19:03:35.063Z,100794.22
2023-08-22T19:06:04.544Z,100788.81
2023-08-22T19:08:32.756Z,100791.50
2023-08-22T19:11:05.054Z,100787.13
2023-08-22T19:13:32.735Z,100784.41
2023-08-22T19:16:00.434Z,100787.59
2023-08-22T19:18:27.928Z,100777.47
2023-08-22T19:20:55.265Z,100777.94
2023-08-22T19:23:22.832Z,100778.75
2023-08-22T19:25:50.469Z,100787.34
2023-08-22T19:28:18.135Z,100780.56
2023-08-22T19:30:45.772Z,100779.88
2023-08-22T19:35:43.967Z,100783.91
2023-08-22T19:38:11.358Z,100787.59
2023-08-22T19:40:43.877Z,100785.38
2023-08-22T19:43:11.424Z,100783.88
2023-08-22T19:45:38.965Z,100782.81
2023-08-22T19:48:07.497Z,100779.69
2023-08-22T19:50:34.881Z,100779.97
2023-08-22T19:53:02.130Z,100779.69
2023-08-22T19:55:30.293Z,100783.06
2023-08-22T19:57:57.785Z,100785.06
2023-08-22T20:00:25.291Z,100777.63
2023-08-22T20:02:53.016Z,100769.91
2023-08-22T20:05:22.030Z,100771.59
2023-08-22T20:07:52.491Z,100777.66
2023-08-22T20:10:20.251Z,100773.25
2023-08-22T20:12:49.716Z,100770.22
2023-08-22T20:15:17.292Z,100771.22
2023-08-22T20:17:46.285Z,100767.31
2023-08-22T20:20:14.221Z,100767.31
2023-08-22T20:22:41.741Z,100768.81
2023-08-22T20:25:09.436Z,100762.56
2023-08-22T20:27:36.974Z,100774.22
2023-08-22T20:30:04.962Z,100774.34
2023-08-22T20:32:32.627Z,100776.19
2023-08-22T20:35:00.036Z,100777.03
2023-08-22T20:37:27.378Z,100766.41
2023-08-22T20:39:54.633Z,100774.28
2023-08-22T20:42:21.970Z,100778.16
2023-08-22T20:44:49.311Z,100773.78
2023-08-22T20:47:16.869Z,100768.69
2023-08-22T20:49:44.848Z,100772.56
2023-08-22T20:52:12.117Z,100771.53
2023-08-22T20:54:39.421Z,100771.84
2023-08-22T20:57:06.851Z,100769.47
2023-08-22T20:59:34.134Z,100776.16
2023-08-22T21:02:01.902Z,100760.56
2023-08-22T21:04:29.594Z,100771.66
2023-08-22T21:06:56.908Z,100770.47
2023-08-22T21:09:24.367Z,100766.63
2023-08-22T21:11:52.057Z,100779.56
2023-08-22T21:14:19.475Z,100776.88
2023-08-22T21:16:46.832Z,100769.94
2023-08-22T21:19:14.317Z,100780.03
2023-08-22T21:21:41.562Z,100776.66
2023-08-22T21:24:09.047Z,100771.06
2023-08-22T21:26:36.685Z,100768.19
2023-08-22T21:29:15.004Z,100768.13
2023-08-22T21:31:42.637Z,100770.03
2023-08-22T21:34:10.478Z,100762.34
2023-08-22T21:36:39.317Z,100761.03
2023-08-22T21:39:06.756Z,100769.13
2023-08-22T21:41:35.015Z,100770.63
2023-08-22T21:44:02.437Z,100769.44
2023-08-22T21:46:30.582Z,100770.91
2023-08-22T21:48:57.929Z,100772.34
2023-08-22T21:51:25.255Z,100768.03
2023-08-22T21:53:52.801Z,100774.13
2023-08-22T21:56:22.430Z,100770.88
2023-08-22T21:58:49.970Z,100767.06
2023-08-22T22:01:17.597Z,100770.97
2023-08-22T22:03:45.113Z,100773.31
2023-08-22T22:06:15.561Z,100770.28
2023-08-22T22:08:43.041Z,100773.81
2023-08-22T22:11:10.583Z,100770.97
2023-08-22T22:13:38.015Z,100763.16
2023-08-22T22:16:05.539Z,100772.25
2023-08-22T22:18:32.873Z,100766.03
2023-08-22T22:21:01.793Z,100765.34
2023-08-22T22:23:29.479Z,100762.94
2023-08-22T22:26:03.733Z,100760.16
2023-08-22T22:28:32.053Z,100765.53
2023-08-22T22:30:59.521Z,100771.00
2023-08-22T22:33:27.226Z,100765.63
2023-08-22T22:35:54.767Z,100766.69
2023-08-22T22:38:22.160Z,100765.78
2023-08-22T22:40:49.546Z,100768.72
2023-08-22T22:43:16.851Z,100772.41
2023-08-22T22:45:44.304Z,100771.31
2023-08-22T22:48:12.004Z,100766.84
2023-08-22T22:50:41.177Z,100771.81
2023-08-22T22:53:08.568Z,100773.06
2023-08-22T22:55:37.036Z,100776.59
2023-08-22T22:58:04.618Z,100774.75
2023-08-22T23:00:32.045Z,100767.97
2023-08-22T23:02:59.712Z,100762.91
2023-08-22T23:05:27.689Z,100758.25
2023-08-22T23:07:55.163Z,100766.88
2023-08-22T23:10:22.848Z,100768.28
2023-08-22T23:12:50.676Z,100773.66
2023-08-22T23:15:17.940Z,100776.84
2023-08-22T23:17:46.624Z,100768.66
2023-08-22T23:20:16.681Z,100770.94
2023-08-22T23:22:46.429Z,100768.25
2023-08-22T23:25:14.420Z,100766.13
2023-08-22T23:27:42.323Z,100763.44
2023-08-22T23:30:11.965Z,100762.44
2023-08-22T23:32:39.361Z,100771.78
2023-08-22T23:35:08.928Z,100772.78
2023-08-22T23:37:36.257Z,100772.94
2023-08-22T23:40:21.273Z,100769.56
2023-08-22T23:42:50.671Z,100768.34
2023-08-22T23:45:18.332Z,100759.97
2023-08-22T23:47:45.960Z,100763.81
2023-08-22T23:50:13.649Z,100756.97
2023-08-22T23:52:41.300Z,100758.69
2023-08-22T23:55:09.932Z,100760.25
2023-08-22T23:57:37.814Z,100762.81
